createdAt,value
2023-02-13T00:01:01.799Z,3.71
2023-02-13T00:06:08.268Z,3.73
2023-02-13T00:11:14.012Z,3.73
2023-02-13T00:16:19.631Z,3.76
2023-02-13T00:21:25.534Z,3.79
2023-02-13T00:26:31.220Z,3.77
2023-02-13T00:31:37.203Z,3.75
2023-02-13T00:36:46.391Z,3.77
2023-02-13T00:41:52.232Z,3.79
2023-02-13T00:46:58.054Z,3.80
2023-02-13T00:52:03.857Z,3.81
2023-02-13T00:57:09.675Z,3.85
2023-02-13T01:02:15.310Z,3.89
2023-02-13T01:07:21.012Z,3.89
2023-02-13T01:12:26.523Z,3.92
2023-02-13T01:17:32.089Z,3.96
2023-02-13T01:22:37.978Z,3.96
2023-02-13T01:27:43.726Z,3.97
2023-02-13T01:32:49.677Z,4.00
2023-02-13T01:37:55.932Z,4.02
2023-02-13T01:43:02.825Z,4.02
2023-02-13T01:48:14.186Z,4.00
2023-02-13T01:53:25.260Z,4.04
2023-02-13T01:58:31.319Z,4.07
2023-02-13T02:03:40.495Z,4.07
2023-02-13T02:08:50.348Z,4.07
2023-02-13T02:14:00.887Z,4.10
2023-02-13T02:19:24.566Z,4.16
2023-02-13T02:25:04.024Z,4.18
2023-02-13T02:30:36.010Z,4.19
2023-02-13T02:35:54.831Z,4.26
2023-02-13T02:41:11.756Z,4.28
2023-02-13T02:46:26.072Z,4.27
2023-02-13T02:51:39.758Z,4.28
2023-02-13T02:56:46.821Z,4.32
2023-02-13T03:02:15.093Z,4.33
2023-02-13T03:07:21.269Z,4.33
2023-02-13T03:12:55.067Z,4.34
2023-02-13T03:18:20.174Z,4.36
2023-02-13T03:23:35.740Z,4.35
2023-02-13T03:29:08.770Z,4.37
2023-02-13T03:34:20.849Z,4.39
2023-02-13T03:39:36.765Z,4.39
2023-02-13T03:45:09.727Z,4.37
2023-02-13T03:50:16.292Z,4.37
2023-02-13T03:55:44.106Z,4.36
2023-02-13T04:00:54.385Z,4.32
2023-02-13T04:06:09.206Z,4.32
2023-02-13T04:11:21.713Z,4.35
2023-02-13T04:16:35.338Z,4.35
2023-02-13T04:21:43.356Z,4.34
2023-02-13T04:26:49.006Z,4.35
2023-02-13T04:31:55.064Z,4.36
2023-02-13T04:37:00.641Z,4.34
2023-02-13T04:42:06.397Z,4.37
2023-02-13T04:47:12.922Z,4.41
2023-02-13T04:52:19.028Z,4.40
2023-02-13T04:57:24.708Z,4.42
2023-02-13T05:02:31.128Z,4.46
2023-02-13T05:07:37.419Z,4.46
2023-02-13T05:12:43.208Z,4.43
2023-02-13T05:17:49.188Z,4.45
2023-02-13T05:23:14.132Z,4.47
2023-02-13T05:28:38.576Z,4.46
2023-02-13T05:33:44.563Z,4.47
2023-02-13T05:38:50.413Z,4.49
2023-02-13T05:43:56.084Z,4.47
2023-02-13T05:49:04.543Z,4.50
2023-02-13T05:54:10.605Z,4.52
2023-02-13T05:59:16.328Z,4.51
2023-02-13T06:04:22.055Z,4.49
2023-02-13T06:09:27.735Z,4.51
2023-02-13T06:14:33.488Z,4.52
2023-02-13T06:19:39.494Z,4.51
2023-02-13T06:24:45.397Z,4.54
2023-02-13T06:29:51.120Z,4.58
2023-02-13T06:34:56.956Z,4.59
2023-02-13T06:40:03.228Z,4.62
2023-02-13T06:45:13.835Z,4.66
2023-02-13T06:50:18.718Z,4.66
2023-02-13T06:55:24.432Z,4.66
2023-02-13T07:00:30.520Z,4.70
2023-02-13T07:05:39.177Z,4.74
2023-02-13T07:10:45.099Z,4.73
2023-02-13T07:15:51.710Z,4.77
2023-02-13T07:20:59.582Z,4.82
2023-02-13T07:26:11.216Z,4.86
2023-02-13T07:31:19.405Z,4.91
2023-02-13T07:36:26.469Z,5.00
2023-02-13T07:41:32.575Z,5.08
2023-02-13T07:46:42.821Z,5.20
2023-02-13T07:51:49.703Z,5.46
2023-02-13T07:56:56.374Z,5.74
2023-02-13T08:02:04.026Z,5.91
2023-02-13T08:07:11.359Z,5.98
2023-02-13T08:12:17.363Z,5.97
2023-02-13T08:17:23.317Z,5.95
2023-02-13T08:22:29.187Z,5.94
2023-02-13T08:27:35.303Z,6.04
2023-02-13T08:32:53.578Z,6.00
2023-02-13T08:38:03.961Z,6.03
2023-02-13T08:43:09.756Z,6.18
2023-02-13T08:48:15.675Z,6.41
2023-02-13T08:53:23.241Z,6.79
2023-02-13T08:58:29.680Z,7.16
2023-02-13T09:03:36.563Z,7.16
2023-02-13T09:08:42.915Z,6.91
2023-02-13T09:13:49.276Z,6.64
2023-02-13T09:18:55.619Z,6.45
2023-02-13T09:24:01.553Z,6.34
2023-02-13T09:29:07.526Z,6.30
2023-02-13T09:34:13.421Z,6.26
2023-02-13T09:39:19.069Z,6.23
2023-02-13T09:44:34.404Z,6.35
2023-02-13T09:49:44.311Z,6.56
2023-02-13T09:54:50.350Z,6.90
2023-02-13T10:00:04.165Z,7.12
2023-02-13T10:05:23.954Z,7.27
2023-02-13T10:10:44.193Z,7.29
2023-02-13T10:15:57.908Z,7.37
2023-02-13T10:21:06.602Z,7.45
2023-02-13T10:26:20.281Z,7.37
2023-02-13T10:31:26.489Z,7.39
2023-02-13T10:36:34.520Z,7.33
2023-02-13T10:41:50.548Z,7.24
2023-02-13T10:47:10.800Z,7.18
2023-02-13T10:52:29.768Z,7.03
2023-02-13T10:57:53.625Z,6.91
2023-02-13T11:02:59.904Z,6.78
2023-02-13T11:08:16.735Z,6.80
2023-02-13T11:13:24.621Z,6.99
2023-02-13T11:18:34.323Z,7.13
2023-02-13T11:23:44.563Z,7.19
2023-02-13T11:28:54.822Z,7.21
2023-02-13T11:34:17.403Z,7.32
2023-02-13T11:39:26.572Z,7.24
2023-02-13T11:44:33.424Z,6.99
2023-02-13T11:49:44.447Z,6.83
2023-02-13T11:54:58.139Z,6.69
2023-02-13T12:00:31.102Z,6.60
2023-02-13T12:05:37.545Z,6.63
2023-02-13T12:10:43.788Z,6.63
2023-02-13T12:15:57.971Z,6.58
2023-02-13T12:21:15.564Z,6.66
2023-02-13T12:26:28.963Z,6.78
2023-02-13T12:31:45.267Z,6.76
2023-02-13T12:37:06.841Z,6.79
2023-02-13T12:42:29.426Z,6.86
2023-02-13T12:47:44.026Z,6.97
2023-02-13T12:52:58.070Z,7.10
2023-02-13T12:58:17.978Z,7.17
2023-02-13T13:03:43.008Z,7.11
2023-02-13T13:09:10.055Z,7.15
2023-02-13T13:14:22.498Z,7.22
2023-02-13T13:19:36.090Z,7.26
2023-02-13T13:24:54.607Z,7.42
2023-02-13T13:30:04.266Z,7.44
2023-02-13T13:35:14.343Z,7.37
2023-02-13T13:40:33.729Z,7.29
2023-02-13T13:45:48.343Z,7.27
2023-02-13T13:50:55.297Z,7.34
2023-02-13T13:56:09.850Z,7.35
2023-02-13T14:01:23.290Z,7.26
2023-02-13T14:06:49.504Z,7.05
2023-02-13T14:11:56.771Z,6.95
2023-02-13T14:17:04.234Z,6.85
2023-02-13T14:22:36.486Z,6.73
2023-02-13T14:27:42.582Z,6.60
2023-02-13T14:32:48.373Z,6.49
2023-02-13T14:37:59.502Z,6.45
2023-02-13T14:43:27.324Z,6.39
2023-02-13T14:48:43.095Z,6.31
2023-02-13T14:53:54.993Z,6.24
2023-02-13T14:59:10.022Z,6.19
2023-02-13T15:04:22.105Z,6.16
2023-02-13T15:09:35.356Z,6.07
2023-02-13T15:14:41.227Z,5.98
2023-02-13T15:19:51.781Z,5.94
2023-02-13T15:24:58.788Z,5.90
2023-02-13T15:30:18.208Z,5.85
2023-02-13T15:35:29.454Z,5.76
2023-02-13T15:40:37.268Z,5.71
2023-02-13T15:45:44.354Z,5.67
2023-02-13T15:50:51.048Z,5.62
2023-02-13T15:56:02.687Z,5.57
2023-02-13T16:01:09.513Z,5.55
2023-02-13T16:06:18.579Z,5.52
2023-02-13T16:11:30.709Z,5.48
2023-02-13T16:16:45.048Z,5.48
2023-02-13T16:21:52.568Z,5.49
2023-02-13T16:26:58.843Z,5.48
2023-02-13T16:32:19.499Z,5.45
2023-02-13T16:37:33.321Z,5.42
2023-02-13T16:42:39.114Z,5.42
2023-02-13T16:47:45.136Z,5.41
2023-02-13T16:52:51.126Z,5.39
2023-02-13T16:58:03.624Z,5.35
2023-02-13T17:03:10.946Z,5.36
2023-02-13T17:08:16.944Z,5.37
2023-02-13T17:13:24.629Z,5.35
2023-02-13T17:18:30.305Z,5.30
2023-02-13T17:23:36.044Z,5.29
2023-02-13T17:28:42.299Z,5.29
2023-02-13T17:33:47.960Z,5.26
2023-02-13T17:38:53.644Z,5.22
2023-02-13T17:43:59.498Z,5.21
2023-02-13T17:49:05.661Z,5.21
2023-02-13T17:54:13.328Z,5.19
2023-02-13T17:59:19.152Z,5.15
2023-02-13T18:04:24.921Z,5.12
2023-02-13T18:09:30.595Z,5.13
2023-02-13T18:14:36.641Z,5.14
2023-02-13T18:19:42.873Z,5.13
2023-02-13T18:24:48.778Z,5.10
2023-02-13T18:29:55.329Z,5.10
2023-02-13T18:35:02.759Z,5.11
2023-02-13T18:40:10.592Z,5.08
2023-02-13T18:45:16.480Z,5.04
2023-02-13T18:50:23.423Z,4.99
2023-02-13T18:55:29.376Z,4.99
2023-02-13T19:00:35.282Z,5.00
2023-02-13T19:05:43.612Z,4.99
2023-02-13T19:10:49.488Z,4.96
2023-02-13T19:15:55.452Z,4.93
2023-02-13T19:21:02.968Z,4.94
2023-02-13T19:26:10.637Z,4.94
2023-02-13T19:31:18.740Z,4.93
2023-02-13T19:36:26.244Z,4.92
2023-02-13T19:41:33.307Z,4.88
2023-02-13T19:46:39.851Z,4.87
2023-02-13T19:51:46.699Z,4.88
2023-02-13T19:56:54.658Z,4.87
2023-02-13T20:02:00.618Z,4.84
2023-02-13T20:07:07.644Z,4.84
2023-02-13T20:12:13.216Z,4.84
2023-02-13T20:17:18.960Z,4.83
2023-02-13T20:22:24.598Z,4.78
2023-02-13T20:27:30.387Z,4.74
2023-02-13T20:32:37.388Z,4.72
2023-02-13T20:37:43.483Z,4.74
2023-02-13T20:42:49.345Z,4.74
2023-02-13T20:47:55.034Z,4.70
2023-02-13T20:53:00.863Z,4.68
2023-02-13T20:58:06.632Z,4.69
2023-02-13T21:03:12.210Z,4.67
2023-02-13T21:08:18.294Z,4.63
2023-02-13T21:13:23.982Z,4.57
2023-02-13T21:18:29.628Z,4.56
2023-02-13T21:23:35.681Z,4.57
2023-02-13T21:28:42.555Z,4.56
2023-02-13T21:33:48.144Z,4.53
2023-02-13T21:38:54.203Z,4.53
2023-02-13T21:43:59.882Z,4.55
2023-02-13T21:49:07.604Z,4.54
2023-02-13T21:54:13.911Z,4.51
2023-02-13T21:59:19.834Z,4.48
2023-02-13T22:04:25.388Z,4.48
2023-02-13T22:09:31.016Z,4.47
2023-02-13T22:14:36.852Z,4.45
2023-02-13T22:19:42.455Z,4.43
2023-02-13T22:24:48.210Z,4.45
2023-02-13T22:29:54.112Z,4.46
2023-02-13T22:34:59.919Z,4.44
2023-02-13T22:40:06.960Z,4.42
2023-02-13T22:45:19.544Z,4.42
2023-02-13T22:50:25.245Z,4.43
2023-02-13T22:55:31.239Z,4.42
2023-02-13T23:00:36.993Z,4.38
2023-02-13T23:05:42.920Z,4.38
2023-02-13T23:11:08.795Z,4.39
2023-02-13T23:16:15.510Z,4.37
2023-02-13T23:21:21.790Z,4.37
2023-02-13T23:26:27.644Z,4.40
2023-02-13T23:31:33.395Z,4.41
2023-02-13T23:36:39.364Z,4.37
2023-02-13T23:41:45.111Z,4.37
2023-02-13T23:46:53.573Z,4.39
2023-02-13T23:51:59.912Z,4.37
2023-02-13T23:57:05.984Z,4.34
